sensor_id;sensor_type;location;lat;lon;timestamp;pressure;altitude;pressure_sealevel;temperature;humidity
51123;BME280;37162;41.724;13.346;2024-02-23T00:00:37;96347.34;;;17.19;57.37
51123;BME280;37162;41.724;13.346;2024-02-23T00:03:03;96339.28;;;17.19;57.33
51123;BME280;37162;41.724;13.346;2024-02-23T00:05:28;96331.25;;;17.19;57.68
51123;BME280;37162;41.724;13.346;2024-02-23T00:07:54;96312.44;;;17.19;57.15
51123;BME280;37162;41.724;13.346;2024-02-23T00:10:19;96313.25;;;17.19;56.65
51123;BME280;37162;41.724;13.346;2024-02-23T00:12:45;96303.59;;;17.18;56.66
51123;BME280;37162;41.724;13.346;2024-02-23T00:15:12;96264.72;;;17.04;56.58
51123;BME280;37162;41.724;13.346;2024-02-23T00:17:38;96287.47;;;17.18;56.67
51123;BME280;37162;41.724;13.346;2024-02-23T00:20:05;96280.38;;;17.12;56.46
51123;BME280;37162;41.724;13.346;2024-02-23T00:22:32;96281.53;;;17.16;56.56
51123;BME280;37162;41.724;13.346;2024-02-23T00:24:59;96264.53;;;17.10;56.59
51123;BME280;37162;41.724;13.346;2024-02-23T00:27:24;96276.41;;;17.15;56.57
51123;BME280;37162;41.724;13.346;2024-02-23T00:29:49;96268.34;;;17.15;56.40
51123;BME280;37162;41.724;13.346;2024-02-23T00:32:15;96263.72;;;17.10;56.54
51123;BME280;37162;41.724;13.346;2024-02-23T00:34:40;96273.72;;;17.15;56.27
51123;BME280;37162;41.724;13.346;2024-02-23T00:37:06;96268.63;;;17.13;56.48
51123;BME280;37162;41.724;13.346;2024-02-23T00:39:33;96256.81;;;17.14;56.43
51123;BME280;37162;41.724;13.346;2024-02-23T00:41:58;96254.13;;;17.14;56.47
51123;BME280;37162;41.724;13.346;2024-02-23T00:44:24;96247.94;;;17.14;56.40
51123;BME280;37162;41.724;13.346;2024-02-23T00:46:49;96230.72;;;17.09;56.31
51123;BME280;37162;41.724;13.346;2024-02-23T00:49:15;96225.41;;;17.15;56.66
51123;BME280;37162;41.724;13.346;2024-02-23T00:51:40;96209.97;;;17.05;56.90
51123;BME280;37162;41.724;13.346;2024-02-23T00:54:06;96223.53;;;17.15;57.18
51123;BME280;37162;41.724;13.346;2024-02-23T00:56:33;96217.09;;;17.16;57.40
51123;BME280;37162;41.724;13.346;2024-02-23T00:58:58;96217.09;;;17.16;58.05
51123;BME280;37162;41.724;13.346;2024-02-23T01:01:24;96220.38;;;17.18;57.79
51123;BME280;37162;41.724;13.346;2024-02-23T01:03:51;96223.88;;;17.19;57.64
51123;BME280;37162;41.724;13.346;2024-02-23T01:06:17;96221.66;;;17.16;57.05
51123;BME280;37162;41.724;13.346;2024-02-23T01:08:42;96225.97;;;17.17;56.67
51123;BME280;37162;41.724;13.346;2024-02-23T01:11:08;96232.13;;;17.17;56.54
51123;BME280;37162;41.724;13.346;2024-02-23T01:13:33;96225.16;;;17.16;56.33
51123;BME280;37162;41.724;13.346;2024-02-23T01:15:59;96235.09;;;17.16;56.36
51123;BME280;37162;41.724;13.346;2024-02-23T01:18:24;96235.81;;;17.11;56.64
51123;BME280;37162;41.724;13.346;2024-02-23T01:20:50;96236.41;;;17.13;56.51
51123;BME280;37162;41.724;13.346;2024-02-23T01:23:15;96231.25;;;17.11;56.77
51123;BME280;37162;41.724;13.346;2024-02-23T01:25:41;96214.34;;;17.11;56.75
51123;BME280;37162;41.724;13.346;2024-02-23T01:28:06;96217.03;;;17.11;56.88
51123;BME280;37162;41.724;13.346;2024-02-23T01:30:31;96214.59;;;17.09;56.62
51123;BME280;37162;41.724;13.346;2024-02-23T01:32:57;96204.69;;;17.10;57.08
51123;BME280;37162;41.724;13.346;2024-02-23T01:35:22;96197.69;;;17.09;57.35
51123;BME280;37162;41.724;13.346;2024-02-23T01:37:48;96192.56;;;17.07;57.11
51123;BME280;37162;41.724;13.346;2024-02-23T01:40:13;96183.69;;;17.07;57.41
51123;BME280;37162;41.724;13.346;2024-02-23T01:42:39;96185.56;;;17.06;57.08
51123;BME280;37162;41.724;13.346;2024-02-23T01:45:05;96164.50;;;16.98;57.52
51123;BME280;37162;41.724;13.346;2024-02-23T01:47:30;96171.59;;;17.04;57.22
51123;BME280;37162;41.724;13.346;2024-02-23T01:49:57;96149.31;;;17.04;57.14
51123;BME280;37162;41.724;13.346;2024-02-23T01:52:24;96148.50;;;17.03;57.31
51123;BME280;37162;41.724;13.346;2024-02-23T01:54:50;96141.28;;;17.04;57.23
51123;BME280;37162;41.724;13.346;2024-02-23T01:57:16;96133.44;;;17.02;57.51
51123;BME280;37162;41.724;13.346;2024-02-23T01:59:42;96123.28;;;17.04;57.58
51123;BME280;37162;41.724;13.346;2024-02-23T02:02:08;96128.09;;;17.02;57.01
51123;BME280;37162;41.724;13.346;2024-02-23T02:04:34;96127.84;;;17.04;56.76
51123;BME280;37162;41.724;13.346;2024-02-23T02:07:00;96123.53;;;17.03;56.64
51123;BME280;37162;41.724;13.346;2024-02-23T02:09:26;96126.22;;;17.03;56.74
51123;BME280;37162;41.724;13.346;2024-02-23T02:11:52;96125.41;;;17.02;56.90
51123;BME280;37162;41.724;13.346;2024-02-23T02:14:18;96115.66;;;16.96;57.13
51123;BME280;37162;41.724;13.346;2024-02-23T02:16:44;96122.16;;;17.00;57.02
51123;BME280;37162;41.724;13.346;2024-02-23T02:19:10;96118.41;;;17.01;56.80
51123;BME280;37162;41.724;13.346;2024-02-23T02:21:37;96127.53;;;17.00;56.75
51123;BME280;37162;41.724;13.346;2024-02-23T02:24:03;96122.41;;;16.99;56.81
51123;BME280;37162;41.724;13.346;2024-02-23T02:26:29;96115.19;;;16.99;56.71
51123;BME280;37162;41.724;13.346;2024-02-23T02:28:55;96113.53;;;16.98;56.63
51123;BME280;37162;41.724;13.346;2024-02-23T02:31:20;96112.72;;;16.98;56.71
51123;BME280;37162;41.724;13.346;2024-02-23T02:33:46;96105.75;;;16.97;56.82
51123;BME280;37162;41.724;13.346;2024-02-23T02:36:11;96093.13;;;16.97;56.85
51123;BME280;37162;41.724;13.346;2024-02-23T02:38:37;96099.31;;;16.98;56.75
51123;BME280;37162;41.724;13.346;2024-02-23T02:41:03;96094.75;;;16.98;56.61
51123;BME280;37162;41.724;13.346;2024-02-23T02:43:28;96084.28;;;16.97;56.65
51123;BME280;37162;41.724;13.346;2024-02-23T02:45:54;96089.66;;;16.97;56.89
51123;BME280;37162;41.724;13.346;2024-02-23T02:48:19;96080.78;;;16.96;56.91
51123;BME280;37162;41.724;13.346;2024-02-23T02:50:44;96085.09;;;16.97;56.94
51123;BME280;37162;41.724;13.346;2024-02-23T02:53:10;96075.34;;;16.91;57.16
51123;BME280;37162;41.724;13.346;2024-02-23T02:55:39;96083.22;;;16.98;57.05
51123;BME280;37162;41.724;13.346;2024-02-23T02:58:04;96070.59;;;16.98;56.52
51123;BME280;37162;41.724;13.346;2024-02-23T03:00:30;96080.53;;;16.98;56.22
51123;BME280;37162;41.724;13.346;2024-02-23T03:02:56;96069.72;;;16.93;56.38
51123;BME280;37162;41.724;13.346;2024-02-23T03:05:21;96085.88;;;16.98;56.25
51123;BME280;37162;41.724;13.346;2024-02-23T03:07:47;96082.91;;;16.94;56.31
51123;BME280;37162;41.724;13.346;2024-02-23T03:10:12;96052.38;;;16.78;56.32
51123;BME280;37162;41.724;13.346;2024-02-23T03:12:38;96059.31;;;16.96;56.41
51123;BME280;37162;41.724;13.346;2024-02-23T03:15:03;96055.25;;;16.94;56.25
51123;BME280;37162;41.724;13.346;2024-02-23T03:17:30;96053.34;;;16.89;55.99
51123;BME280;37162;41.724;13.346;2024-02-23T03:19:56;96042.03;;;16.87;56.16
51123;BME280;37162;41.724;13.346;2024-02-23T03:22:21;96048.25;;;16.93;56.09
51123;BME280;37162;41.724;13.346;2024-02-23T03:24:47;96044.78;;;16.92;56.06
51123;BME280;37162;41.724;13.346;2024-02-23T03:27:12;96032.09;;;16.88;55.87
51123;BME280;37162;41.724;13.346;2024-02-23T03:29:38;96040.47;;;16.91;56.52
51123;BME280;37162;41.724;13.346;2024-02-23T03:32:05;96028.94;;;16.91;56.11
51123;BME280;37162;41.724;13.346;2024-02-23T03:34:30;96016.53;;;16.84;56.14
51123;BME280;37162;41.724;13.346;2024-02-23T03:36:56;96023.81;;;16.89;56.11
51123;BME280;37162;41.724;13.346;2024-02-23T03:39:21;96029.44;;;16.88;56.10
51123;BME280;37162;41.724;13.346;2024-02-23T03:41:47;96022.19;;;16.88;56.20
51123;BME280;37162;41.724;13.346;2024-02-23T03:44:12;96030.00;;;16.90;56.53
51123;BME280;37162;41.724;13.346;2024-02-23T03:46:38;95996.09;;;16.83;56.48
51123;BME280;37162;41.724;13.346;2024-02-23T03:49:03;95986.44;;;16.82;56.47
51123;BME280;37162;41.724;13.346;2024-02-23T03:51:28;95998.63;;;16.90;57.07
51123;BME280;37162;41.724;13.346;2024-02-23T03:53:54;95994.88;;;16.91;56.99
51123;BME280;37162;41.724;13.346;2024-02-23T03:56:19;96000.50;;;16.90;56.57
51123;BME280;37162;41.724;13.346;2024-02-23T03:58:45;96002.91;;;16.91;56.39
51123;BME280;37162;41.724;13.346;2024-02-23T04:01:10;95996.16;;;16.89;56.19
51123;BME280;37162;41.724;13.346;2024-02-23T04:03:36;95986.00;;;16.91;56.04
51123;BME280;37162;41.724;13.346;2024-02-23T04:06:01;95977.69;;;16.92;55.99
51123;BME280;37162;41.724;13.346;2024-02-23T04:08:27;95980.38;;;16.92;56.22
51123;BME280;37162;41.724;13.346;2024-02-23T04:10:52;95976.09;;;16.91;56.14
51123;BME280;37162;41.724;13.346;2024-02-23T04:13:18;95987.38;;;16.93;56.00
51123;BME280;37162;41.724;13.346;2024-02-23T04:15:43;95985.19;;;16.90;55.92
51123;BME280;37162;41.724;13.346;2024-02-23T04:18:09;95982.00;;;16.93;56.17
51123;BME280;37162;41.724;13.346;2024-02-23T04:20:35;95982.00;;;16.93;56.10
51123;BME280;37162;41.724;13.346;2024-02-23T04:23:00;95979.09;;;16.95;56.23
51123;BME280;37162;41.724;13.346;2024-02-23T04:25:26;95979.09;;;16.95;56.37
51123;BME280;37162;41.724;13.346;2024-02-23T04:27:51;95976.41;;;16.95;56.34
51123;BME280;37162;41.724;13.346;2024-02-23T04:30:17;95979.09;;;16.95;56.28
51123;BME280;37162;41.724;13.346;2024-02-23T04:32:42;95969.16;;;16.95;56.53
51123;BME280;37162;41.724;13.346;2024-02-23T04:35:09;95977.44;;;16.94;56.33
51123;BME280;37162;41.724;13.346;2024-02-23T04:37:34;95980.69;;;16.96;56.56
51123;BME280;37162;41.724;13.346;2024-02-23T04:40:00;95968.91;;;16.97;56.61
51123;BME280;37162;41.724;13.346;2024-02-23T04:42:25;95970.78;;;16.96;56.74
51123;BME280;37162;41.724;13.346;2024-02-23T04:44:51;95969.69;;;16.97;56.73
51123;BME280;37162;41.724;13.346;2024-02-23T04:47:19;95967.81;;;16.98;56.91
51123;BME280;37162;41.724;13.346;2024-02-23T04:49:45;95970.28;;;16.99;56.91
51123;BME280;37162;41.724;13.346;2024-02-23T04:52:10;95984.72;;;16.98;56.73
51123;BME280;37162;41.724;13.346;2024-02-23T04:54:36;95975.88;;;16.98;56.91
51123;BME280;37162;41.724;13.346;2024-02-23T04:57:01;95975.88;;;16.98;57.23
51123;BME280;37162;41.724;13.346;2024-02-23T04:59:27;95974.25;;;16.97;56.86
51123;BME280;37162;41.724;13.346;2024-02-23T05:01:53;95960.03;;;16.96;57.06
51123;BME280;37162;41.724;13.346;2024-02-23T05:04:18;95961.91;;;16.96;57.02
51123;BME280;37162;41.724;13.346;2024-02-23T05:06:44;95957.63;;;16.95;57.23
51123;BME280;37162;41.724;13.346;2024-02-23T05:09:09;95967.28;;;16.96;57.01
51123;BME280;37162;41.724;13.346;2024-02-23T05:11:36;95971.03;;;16.95;57.20
51123;BME280;37162;41.724;13.346;2024-02-23T05:14:01;95960.00;;;16.91;57.22
51123;BME280;37162;41.724;13.346;2024-02-23T05:16:27;95962.19;;;16.94;57.39
51123;BME280;37162;41.724;13.346;2024-02-23T05:18:55;95964.84;;;16.94;57.43
51123;BME280;37162;41.724;13.346;2024-02-23T05:21:20;95957.84;;;16.93;57.20
51123;BME280;37162;41.724;13.346;2024-02-23T05:23:46;95953.25;;;16.89;57.46
51123;BME280;37162;41.724;13.346;2024-02-23T05:26:12;95958.09;;;16.92;57.35
51123;BME280;37162;41.724;13.346;2024-02-23T05:28:37;95957.03;;;16.93;57.47
51123;BME280;37162;41.724;13.346;2024-02-23T05:31:03;95956.19;;;16.87;57.47
51123;BME280;37162;41.724;13.346;2024-02-23T05:33:29;95964.50;;;16.85;57.26
51123;BME280;37162;41.724;13.346;2024-02-23T05:35:55;95962.19;;;16.94;57.47
51123;BME280;37162;41.724;13.346;2024-02-23T05:38:20;95979.09;;;16.95;57.26
51123;BME280;37162;41.724;13.346;2024-02-23T05:40:46;95974.69;;;16.89;57.39
51123;BME280;37162;41.724;13.346;2024-02-23T05:43:12;95978.00;;;16.96;57.71
51123;BME280;37162;41.724;13.346;2024-02-23T05:45:37;95974.25;;;16.97;57.59
51123;BME280;37162;41.724;13.346;2024-02-23T05:48:03;95975.88;;;16.98;57.96
51123;BME280;37162;41.724;13.346;2024-02-23T05:50:29;95966.78;;;16.99;57.44
51123;BME280;37162;41.724;13.346;2024-02-23T05:52:54;95966.78;;;16.99;57.37
51123;BME280;37162;41.724;13.346;2024-02-23T05:55:20;95956.84;;;16.99;57.22
51123;BME280;37162;41.724;13.346;2024-02-23T05:57:45;95948.00;;;16.99;57.24
51123;BME280;37162;41.724;13.346;2024-02-23T06:00:11;95943.69;;;16.98;57.59
51123;BME280;37162;41.724;13.346;2024-02-23T06:02:38;95929.66;;;16.91;57.39
51123;BME280;37162;41.724;13.346;2024-02-23T06:05:04;95921.66;;;16.96;57.68
51123;BME280;37162;41.724;13.346;2024-02-23T06:07:33;95928.66;;;16.97;57.70
51123;BME280;37162;41.724;13.346;2024-02-23T06:09:58;95923.28;;;16.97;57.65
51123;BME280;37162;41.724;13.346;2024-02-23T06:12:24;95929.72;;;16.96;57.73
51123;BME280;37162;41.724;13.346;2024-02-23T06:14:50;95928.09;;;16.95;58.00
51123;BME280;37162;41.724;13.346;2024-02-23T06:17:16;95924.63;;;16.94;57.99
51123;BME280;37162;41.724;13.346;2024-02-23T06:19:42;95916.75;;;16.88;57.63
51123;BME280;37162;41.724;13.346;2024-02-23T06:22:07;95921.09;;;16.94;57.82
51123;BME280;37162;41.724;13.346;2024-02-23T06:24:35;95918.41;;;16.94;57.73
51123;BME280;37162;41.724;13.346;2024-02-23T06:27:01;95922.91;;;16.88;57.84
51123;BME280;37162;41.724;13.346;2024-02-23T06:29:28;95933.16;;;16.91;57.88
51123;BME280;37162;41.724;13.346;2024-02-23T06:31:54;95934.22;;;16.90;57.82
51123;BME280;37162;41.724;13.346;2024-02-23T06:34:19;95934.78;;;16.92;57.96
51123;BME280;37162;41.724;13.346;2024-02-23T06:36:45;95926.72;;;16.92;58.00
51123;BME280;37162;41.724;13.346;2024-02-23T06:39:10;95928.34;;;16.93;57.86
51123;BME280;37162;41.724;13.346;2024-02-23T06:41:37;95921.09;;;16.94;57.97
51123;BME280;37162;41.724;13.346;2024-02-23T06:44:04;95929.97;;;16.94;58.08
51123;BME280;37162;41.724;13.346;2024-02-23T06:46:29;95925.41;;;16.95;57.99
51123;BME280;37162;41.724;13.346;2024-02-23T06:48:55;95922.72;;;16.95;58.09
51123;BME280;37162;41.724;13.346;2024-02-23T06:51:21;95933.22;;;16.96;58.19
51123;BME280;37162;41.724;13.346;2024-02-23T06:53:46;95921.66;;;16.96;57.99
51123;BME280;37162;41.724;13.346;2024-02-23T06:56:12;95921.66;;;16.96;57.95
51123;BME280;37162;41.724;13.346;2024-02-23T06:58:38;95917.38;;;16.95;58.06
51123;BME280;37162;41.724;13.346;2024-02-23T07:01:04;95928.66;;;16.97;58.20
51123;BME280;37162;41.724;13.346;2024-02-23T07:03:31;95911.97;;;16.90;58.15
51123;BME280;37162;41.724;13.346;2024-02-23T07:05:57;95917.31;;;16.90;58.35
51123;BME280;37162;41.724;13.346;2024-02-23T07:08:22;95926.22;;;16.95;58.14
51123;BME280;37162;41.724;13.346;2024-02-23T07:10:48;95935.09;;;16.96;58.22
51123;BME280;37162;41.724;13.346;2024-02-23T07:13:13;95927.84;;;16.96;58.33
51123;BME280;37162;41.724;13.346;2024-02-23T07:15:39;95928.66;;;16.97;58.51
51123;BME280;37162;41.724;13.346;2024-02-23T07:18:04;95927.84;;;16.96;58.40
51123;BME280;37162;41.724;13.346;2024-02-23T07:20:30;95916.50;;;16.89;58.19
51123;BME280;37162;41.724;13.346;2024-02-23T07:22:55;95923.53;;;16.95;58.28
51123;BME280;37162;41.724;13.346;2024-02-23T07:25:21;95936.44;;;16.98;58.53
51123;BME280;37162;41.724;13.346;2024-02-23T07:27:47;95934.81;;;16.97;58.54
51123;BME280;37162;41.724;13.346;2024-02-23T07:30:15;95932.94;;;16.98;58.34
51123;BME280;37162;41.724;13.346;2024-02-23T07:32:44;95924.31;;;16.91;58.71
51123;BME280;37162;41.724;13.346;2024-02-23T07:35:10;95935.63;;;16.98;58.66
51123;BME280;37162;41.724;13.346;2024-02-23T07:37:38;95929.41;;;16.92;58.70
51123;BME280;37162;41.724;13.346;2024-02-23T07:40:05;95944.75;;;16.97;58.76
51123;BME280;37162;41.724;13.346;2024-02-23T07:42:39;95935.88;;;16.96;58.69
51123;BME280;37162;41.724;13.346;2024-02-23T07:45:06;95924.31;;;16.91;58.90
51123;BME280;37162;41.724;13.346;2024-02-23T07:47:34;95924.34;;;16.96;59.07
51123;BME280;37162;41.724;13.346;2024-02-23T07:50:00;95919.78;;;16.96;59.04
51123;BME280;37162;41.724;13.346;2024-02-23T07:52:26;95927.03;;;16.96;58.94
51123;BME280;37162;41.724;13.346;2024-02-23T07:54:55;95920.84;;;16.95;59.02
51123;BME280;37162;41.724;13.346;2024-02-23T07:57:20;95915.50;;;16.95;59.10
51123;BME280;37162;41.724;13.346;2024-02-23T07:59:46;95921.34;;;16.92;59.17
51123;BME280;37162;41.724;13.346;2024-02-23T08:02:13;95921.09;;;16.94;59.74
51123;BME280;37162;41.724;13.346;2024-02-23T08:04:39;95922.97;;;16.93;60.01
51123;BME280;37162;41.724;13.346;2024-02-23T08:07:04;95923.22;;;16.92;59.51
51123;BME280;37162;41.724;13.346;2024-02-23T08:09:30;95909.78;;;16.86;59.33
51123;BME280;37162;41.724;13.346;2024-02-23T08:11:55;95915.94;;;16.87;59.43
51123;BME280;37162;41.724;13.346;2024-02-23T08:14:21;95912.44;;;16.86;59.98
51123;BME280;37162;41.724;13.346;2024-02-23T08:16:46;95906.81;;;16.88;60.19
51123;BME280;37162;41.724;13.346;2024-02-23T08:19:12;95904.66;;;16.85;60.47
51123;BME280;37162;41.724;13.346;2024-02-23T08:21:38;95905.66;;;16.79;60.06
51123;BME280;37162;41.724;13.346;2024-02-23T08:24:04;95910.53;;;16.82;60.03
51123;BME280;37162;41.724;13.346;2024-02-23T08:26:30;95920.44;;;16.81;60.08
51123;BME280;37162;41.724;13.346;2024-02-23T08:28:55;95923.09;;;16.76;60.21
51123;BME280;37162;41.724;13.346;2024-02-23T08:31:21;95917.28;;;16.84;62.20
51123;BME280;37162;41.724;13.346;2024-02-23T08:33:47;95915.09;;;16.81;61.41
51123;BME280;37162;41.724;13.346;2024-02-23T08:36:12;95911.81;;;16.79;61.41
51123;BME280;37162;41.724;13.346;2024-02-23T08:38:37;95909.41;;;16.78;61.19
51123;BME280;37162;41.724;13.346;2024-02-23T08:41:04;95881.06;;;16.65;61.08
51123;BME280;37162;41.724;13.346;2024-02-23T08:43:29;95903.50;;;16.76;61.07
51123;BME280;37162;41.724;13.346;2024-02-23T08:45:55;95890.09;;;16.76;60.95
51123;BME280;37162;41.724;13.346;2024-02-23T08:48:20;95884.72;;;16.76;61.12
51123;BME280;37162;41.724;13.346;2024-02-23T08:50:46;95896.00;;;16.78;61.20
51123;BME280;37162;41.724;13.346;2024-02-23T08:53:11;95896.00;;;16.78;61.27
51123;BME280;37162;41.724;13.346;2024-02-23T08:55:37;95886.06;;;16.78;61.11
51123;BME280;37162;41.724;13.346;2024-02-23T08:58:02;95879.63;;;16.79;61.04
51123;BME280;37162;41.724;13.346;2024-02-23T09:00:28;95891.19;;;16.80;61.35
51123;BME280;37162;41.724;13.346;2024-02-23T09:02:53;95896.56;;;16.80;61.17
51123;BME280;37162;41.724;13.346;2024-02-23T09:05:19;95891.19;;;16.80;61.23
51123;BME280;37162;41.724;13.346;2024-02-23T09:07:46;95896.56;;;16.80;61.31
51123;BME280;37162;41.724;13.346;2024-02-23T09:10:11;95880.84;;;16.67;61.32
51123;BME280;37162;41.724;13.346;2024-02-23T09:12:37;95893.88;;;16.80;61.30
51123;BME280;37162;41.724;13.346;2024-02-23T09:15:04;95888.44;;;16.75;61.34
51123;BME280;37162;41.724;13.346;2024-02-23T09:17:30;95887.69;;;16.79;61.54
51123;BME280;37162;41.724;13.346;2024-02-23T09:19:55;95878.78;;;16.74;61.62
51123;BME280;37162;41.724;13.346;2024-02-23T09:22:21;95892.50;;;16.77;61.60
51123;BME280;37162;41.724;13.346;2024-02-23T09:24:47;95894.13;;;16.78;61.49
51123;BME280;37162;41.724;13.346;2024-02-23T09:27:13;95890.63;;;16.78;61.65
51123;BME280;37162;41.724;13.346;2024-02-23T09:29:40;95885.25;;;16.78;61.58
51123;BME280;37162;41.724;13.346;2024-02-23T09:32:06;95882.59;;;16.78;61.83
51123;BME280;37162;41.724;13.346;2024-02-23T09:34:31;95881.78;;;16.77;61.47
51123;BME280;37162;41.724;13.346;2024-02-23T09:36:57;95879.09;;;16.77;61.48
51123;BME280;37162;41.724;13.346;2024-02-23T09:39:22;95878.28;;;16.77;61.63
51123;BME280;37162;41.724;13.346;2024-02-23T09:41:50;95891.69;;;16.77;61.98
51123;BME280;37162;41.724;13.346;2024-02-23T09:44:18;95884.19;;;16.79;61.85
51123;BME280;37162;41.724;13.346;2024-02-23T09:46:46;95882.59;;;16.78;61.82
51123;BME280;37162;41.724;13.346;2024-02-23T09:49:12;95887.69;;;16.79;61.98
51123;BME280;37162;41.724;13.346;2024-02-23T09:51:39;95877.97;;;16.73;62.08
51123;BME280;37162;41.724;13.346;2024-02-23T09:54:05;95892.81;;;16.81;62.11
51123;BME280;37162;41.724;13.346;2024-02-23T09:56:30;95893.63;;;16.81;62.16
51123;BME280;37162;41.724;13.346;2024-02-23T09:58:59;95875.59;;;16.77;62.10
51123;BME280;37162;41.724;13.346;2024-02-23T10:01:28;95881.81;;;16.82;62.13
51123;BME280;37162;41.724;13.346;2024-02-23T10:03:57;95882.63;;;16.83;62.12
51123;BME280;37162;41.724;13.346;2024-02-23T10:06:24;95848.41;;;16.68;62.06
51123;BME280;37162;41.724;13.346;2024-02-23T10:08:49;95876.97;;;16.79;62.01
51123;BME280;37162;41.724;13.346;2024-02-23T10:11:18;95881.81;;;16.82;62.03
51123;BME280;37162;41.724;13.346;2024-02-23T10:13:43;95876.16;;;16.79;62.04
51123;BME280;37162;41.724;13.346;2024-02-23T10:16:09;95882.09;;;16.81;62.09
51123;BME280;37162;41.724;13.346;2024-02-23T10:18:37;95883.16;;;16.80;62.11
51123;BME280;37162;41.724;13.346;2024-02-23T10:21:04;95875.91;;;16.80;62.35
51123;BME280;37162;41.724;13.346;2024-02-23T10:23:30;95868.09;;;16.79;62.45
51123;BME280;37162;41.724;13.346;2024-02-23T10:25:55;95870.78;;;16.79;62.31
51123;BME280;37162;41.724;13.346;2024-02-23T10:28:21;95849.28;;;16.74;62.55
51123;BME280;37162;41.724;13.346;2024-02-23T10:30:48;95854.69;;;16.79;62.55
51123;BME280;37162;41.724;13.346;2024-02-23T10:33:14;95860.84;;;16.79;62.44
51123;BME280;37162;41.724;13.346;2024-02-23T10:35:40;95844.19;;;16.72;62.47
51123;BME280;37162;41.724;13.346;2024-02-23T10:38:08;95859.00;;;16.80;62.56
51123;BME280;37162;41.724;13.346;2024-02-23T10:40:39;95852.81;;;16.79;62.43
51123;BME280;37162;41.724;13.346;2024-02-23T10:43:10;95854.69;;;16.79;62.70
51123;BME280;37162;41.724;13.346;2024-02-23T10:45:37;95845.53;;;16.75;62.85
51123;BME280;37162;41.724;13.346;2024-02-23T10:48:07;95858.44;;;16.78;62.82
51123;BME280;37162;41.724;13.346;2024-02-23T10:50:35;95852.81;;;16.79;63.01
51123;BME280;37162;41.724;13.346;2024-02-23T10:53:01;95848.53;;;16.78;63.22
51123;BME280;37162;41.724;13.346;2024-02-23T10:55:28;95840.47;;;16.78;62.90
51123;BME280;37162;41.724;13.346;2024-02-23T10:57:55;95850.97;;;16.80;63.19
51123;BME280;37162;41.724;13.346;2024-02-23T11:00:22;95841.81;;;16.76;63.45
51123;BME280;37162;41.724;13.346;2024-02-23T11:02:51;95842.09;;;16.79;63.71
51123;BME280;37162;41.724;13.346;2024-02-23T11:05:18;95826.00;;;16.79;63.95
51123;BME280;37162;41.724;13.346;2024-02-23T11:07:47;95814.69;;;16.72;63.76
51123;BME280;37162;41.724;13.346;2024-02-23T11:10:16;95821.69;;;16.78;63.82
51123;BME280;37162;41.724;13.346;2024-02-23T11:12:43;95826.53;;;16.76;63.34
51123;BME280;37162;41.724;13.346;2024-02-23T11:15:09;95813.88;;;16.72;63.31
51123;BME280;37162;41.724;13.346;2024-02-23T11:17:36;95812.53;;;16.74;63.54
51123;BME280;37162;41.724;13.346;2024-02-23T11:20:04;95818.72;;;16.75;63.06
51123;BME280;37162;41.724;13.346;2024-02-23T11:22:34;95793.66;;;16.64;63.33
51123;BME280;37162;41.724;13.346;2024-02-23T11:25:04;95810.13;;;16.73;63.11
51123;BME280;37162;41.724;13.346;2024-02-23T11:27:43;95807.66;;;16.71;62.94
51123;BME280;37162;41.724;13.346;2024-02-23T11:30:10;95800.47;;;16.72;63.17
51123;BME280;37162;41.724;13.346;2024-02-23T11:32:47;95785.88;;;16.63;63.05
51123;BME280;37162;41.724;13.346;2024-02-23T11:35:17;95796.94;;;16.71;63.23
51123;BME280;37162;41.724;13.346;2024-02-23T11:37:53;95794.25;;;16.71;63.50
51123;BME280;37162;41.724;13.346;2024-02-23T11:40:29;95785.19;;;16.72;63.94
51123;BME280;37162;41.724;13.346;2024-02-23T11:42:55;95796.94;;;16.71;63.77
51123;BME280;37162;41.724;13.346;2024-02-23T11:45:21;95791.34;;;16.73;63.96
51123;BME280;37162;41.724;13.346;2024-02-23T11:47:47;95788.59;;;16.68;64.05
51123;BME280;37162;41.724;13.346;2024-02-23T11:50:13;95786.44;;;16.70;64.09
51123;BME280;37162;41.724;13.346;2024-02-23T11:52:40;95790.84;;;16.76;64.49
51123;BME280;37162;41.724;13.346;2024-02-23T11:55:06;95770.69;;;16.73;64.48
51123;BME280;37162;41.724;13.346;2024-02-23T11:57:34;95776.06;;;16.73;64.09
51123;BME280;37162;41.724;13.346;2024-02-23T12:00:01;95775.03;;;16.79;64.10
51123;BME280;37162;41.724;13.346;2024-02-23T12:02:27;95776.09;;;16.78;63.96
51123;BME280;37162;41.724;13.346;2024-02-23T12:04:53;95772.59;;;16.78;63.83
51123;BME280;37162;41.724;13.346;2024-02-23T12:07:18;95771.81;;;16.77;64.17
51123;BME280;37162;41.724;13.346;2024-02-23T12:09:45;95772.34;;;16.79;64.15
51123;BME280;37162;41.724;13.346;2024-02-23T12:12:10;95761.63;;;16.79;64.06
51123;BME280;37162;41.724;13.346;2024-02-23T12:14:36;95755.44;;;16.79;64.35
51123;BME280;37162;41.724;13.346;2024-02-23T12:17:02;95758.69;;;16.81;64.50
51123;BME280;37162;41.724;13.346;2024-02-23T12:19:29;95761.38;;;16.81;64.61
51123;BME280;37162;41.724;13.346;2024-02-23T12:22:00;95742.81;;;16.74;64.54
51123;BME280;37162;41.724;13.346;2024-02-23T12:24:26;95751.19;;;16.83;64.56
51123;BME280;37162;41.724;13.346;2024-02-23T12:26:56;95747.97;;;16.81;64.81
51123;BME280;37162;41.724;13.346;2024-02-23T12:29:22;95747.44;;;16.84;64.82
51123;BME280;37162;41.724;13.346;2024-02-23T12:31:48;95747.44;;;16.84;64.71
51123;BME280;37162;41.724;13.346;2024-02-23T12:34:14;95738.34;;;16.85;64.84
51123;BME280;37162;41.724;13.346;2024-02-23T12:36:39;95715.47;;;16.77;64.92
51123;BME280;37162;41.724;13.346;2024-02-23T12:39:05;95715.22;;;16.79;64.95
51123;BME280;37162;41.724;13.346;2024-02-23T12:41:31;95715.00;;;16.85;64.88
51123;BME280;37162;41.724;13.346;2024-02-23T12:43:58;95729.22;;;16.86;65.05